createdAt,value
2019-02-26T00:01:29.190Z,12.77
2019-02-26T00:03:59.700Z,11.50
2019-02-26T00:06:31.386Z,13.47
2019-02-26T00:09:03.549Z,12.63
2019-02-26T00:11:33.305Z,15.20
2019-02-26T00:14:03.210Z,12.13
2019-02-26T00:16:35.389Z,11.70
2019-02-26T00:19:05.012Z,11.20
2019-02-26T00:21:35.248Z,12.07
2019-02-26T00:24:05.424Z,10.73
2019-02-26T00:26:36.240Z,12.77
2019-02-26T00:29:08.431Z,12.93
2019-02-26T00:31:38.000Z,10.47
2019-02-26T00:34:08.268Z,12.23
2019-02-26T00:36:38.754Z,12.27
2019-02-26T00:39:08.499Z,11.10
2019-02-26T00:41:40.151Z,10.90
2019-02-26T00:44:09.382Z,13.33
2019-02-26T00:46:39.472Z,11.90
2019-02-26T00:49:09.022Z,13.37
2019-02-26T00:51:39.820Z,12.40
2019-02-26T00:54:09.735Z,11.90
2019-02-26T00:56:41.006Z,11.20
2019-02-26T00:59:10.510Z,13.07
2019-02-26T01:01:40.008Z,13.53
2019-02-26T01:04:09.460Z,13.87
2019-02-26T01:06:39.005Z,11.20
2019-02-26T01:09:11.320Z,12.23
2019-02-26T01:11:42.818Z,13.27
2019-02-26T01:14:13.605Z,12.03
2019-02-26T01:16:44.187Z,12.03
2019-02-26T01:19:15.275Z,12.90
2019-02-26T01:21:45.710Z,12.87
2019-02-26T01:24:15.173Z,11.77
2019-02-26T01:26:44.686Z,11.23
2019-02-26T01:29:18.521Z,10.67
2019-02-26T01:31:45.331Z,12.47
2019-02-26T01:34:15.864Z,10.90
2019-02-26T01:36:47.792Z,11.27
2019-02-26T01:39:19.230Z,13.33
2019-02-26T01:41:50.372Z,9.77
2019-02-26T01:44:19.615Z,10.40
2019-02-26T01:46:49.154Z,10.27
2019-02-26T01:49:19.220Z,11.67
2019-02-26T01:51:51.701Z,10.50
2019-02-26T01:54:21.180Z,11.40
2019-02-26T01:56:52.678Z,12.17
2019-02-26T01:59:21.877Z,12.87
2019-02-26T02:01:53.270Z,12.63
2019-02-26T02:04:22.669Z,10.93
2019-02-26T02:06:54.323Z,11.80
2019-02-26T02:09:25.108Z,11.23
2019-02-26T02:11:57.429Z,9.80
2019-02-26T02:14:25.754Z,11.40
2019-02-26T02:16:55.311Z,11.93
2019-02-26T02:19:25.674Z,10.60
2019-02-26T02:21:58.107Z,11.87
2019-02-26T02:24:27.241Z,10.27
2019-02-26T02:26:58.595Z,11.73
2019-02-26T02:29:28.577Z,12.20
2019-02-26T02:32:01.463Z,12.50
2019-02-26T02:34:32.624Z,10.53
2019-02-26T02:37:00.695Z,10.57
2019-02-26T02:39:30.138Z,12.00
2019-02-26T02:41:59.625Z,13.03
2019-02-26T02:44:29.090Z,12.40
2019-02-26T02:47:01.375Z,12.17
2019-02-26T02:49:32.541Z,12.37
2019-02-26T02:52:01.474Z,11.73
2019-02-26T02:54:31.745Z,9.47
2019-02-26T02:57:02.500Z,9.53
2019-02-26T02:59:34.024Z,10.70
2019-02-26T03:02:03.673Z,12.53
2019-02-26T03:04:34.682Z,11.10
2019-02-26T03:07:04.422Z,12.40
2019-02-26T03:09:37.103Z,12.70
2019-02-26T03:12:05.308Z,12.43
2019-02-26T03:14:36.462Z,13.53
2019-02-26T03:17:08.353Z,13.13
2019-02-26T03:19:40.362Z,11.57
2019-02-26T03:22:09.819Z,10.13
2019-02-26T03:24:39.664Z,10.87
2019-02-26T03:27:09.101Z,11.73
2019-02-26T03:29:38.573Z,10.00
2019-02-26T03:32:08.017Z,13.47
2019-02-26T03:34:37.538Z,12.57
2019-02-26T03:37:08.334Z,12.07
2019-02-26T03:39:38.219Z,11.53
2019-02-26T03:42:08.222Z,12.47
2019-02-26T03:44:39.092Z,14.67
2019-02-26T03:47:08.543Z,13.80
2019-02-26T03:49:41.662Z,13.03
2019-02-26T03:52:09.329Z,13.80
2019-02-26T03:54:40.351Z,13.13
2019-02-26T03:57:11.346Z,11.33
2019-02-26T03:59:41.408Z,12.27
2019-02-26T04:02:11.905Z,12.20
2019-02-26T04:04:42.260Z,12.50
2019-02-26T04:07:11.880Z,13.13
2019-02-26T04:09:44.100Z,12.70
2019-02-26T04:12:15.002Z,12.97
2019-02-26T04:14:43.968Z,12.93
2019-02-26T04:17:13.422Z,11.97
2019-02-26T04:19:44.526Z,10.33
2019-02-26T04:22:29.618Z,11.17
2019-02-26T04:25:15.504Z,11.10
2019-02-26T04:28:13.595Z,10.03
2019-02-26T04:30:56.362Z,11.87
2019-02-26T04:34:01.130Z,10.40
2019-02-26T04:36:34.358Z,11.43
2019-02-26T04:39:34.871Z,11.27
2019-02-26T04:42:32.759Z,10.17
2019-02-26T04:45:32.543Z,9.73
2019-02-26T04:48:06.661Z,11.20
2019-02-26T04:50:38.612Z,10.40
2019-02-26T04:53:10.539Z,10.07
2019-02-26T04:55:41.353Z,10.67
2019-02-26T04:58:12.435Z,9.07
2019-02-26T05:00:41.116Z,11.17
2019-02-26T05:03:14.072Z,12.30
2019-02-26T05:05:41.909Z,9.90
2019-02-26T05:08:12.823Z,10.30
2019-02-26T05:10:42.572Z,11.03
2019-02-26T05:13:12.080Z,13.07
2019-02-26T05:15:43.528Z,10.47
2019-02-26T05:18:12.763Z,10.50
2019-02-26T05:20:44.651Z,10.27
2019-02-26T05:23:13.509Z,10.20
2019-02-26T05:25:44.849Z,11.27
2019-02-26T05:28:15.646Z,9.97
2019-02-26T05:30:46.431Z,10.17
2019-02-26T05:33:18.380Z,12.07
2019-02-26T05:35:48.998Z,13.37
2019-02-26T05:38:19.086Z,13.60
2019-02-26T05:40:50.867Z,12.90
2019-02-26T05:43:20.430Z,13.33
2019-02-26T05:45:53.907Z,13.80
2019-02-26T05:48:23.786Z,13.37
2019-02-26T05:50:53.401Z,12.00
2019-02-26T05:53:22.846Z,14.40
2019-02-26T05:55:54.068Z,13.10
2019-02-26T05:58:23.543Z,13.50
2019-02-26T06:00:53.117Z,11.00
2019-02-26T06:03:22.650Z,13.63
2019-02-26T06:05:54.925Z,14.73
2019-02-26T06:08:25.896Z,14.40
2019-02-26T06:10:54.590Z,13.97
2019-02-26T06:13:24.097Z,14.20
2019-02-26T06:15:55.243Z,14.90
2019-02-26T06:18:24.930Z,13.30
2019-02-26T06:20:55.906Z,12.53
2019-02-26T06:23:28.063Z,12.77
2019-02-26T06:26:00.826Z,12.80
2019-02-26T06:28:28.447Z,12.27
2019-02-26T06:30:57.910Z,13.33
2019-02-26T06:33:31.835Z,13.73
2019-02-26T06:35:59.863Z,11.30
2019-02-26T06:38:32.210Z,12.83
2019-02-26T06:41:01.166Z,10.70
2019-02-26T06:43:31.010Z,13.27
2019-02-26T06:46:02.590Z,10.33
2019-02-26T06:48:32.399Z,11.20
2019-02-26T06:51:02.709Z,11.43
2019-02-26T06:53:33.284Z,10.87
2019-02-26T06:56:02.837Z,11.57
2019-02-26T06:58:32.326Z,10.27
2019-02-26T07:01:01.938Z,12.90
2019-02-26T07:03:31.480Z,11.97
2019-02-26T07:06:03.147Z,12.77
2019-02-26T07:08:33.728Z,13.60
2019-02-26T07:11:03.940Z,12.87
2019-02-26T07:13:34.304Z,10.27
2019-02-26T07:16:05.305Z,12.20
2019-02-26T07:18:34.956Z,11.93
2019-02-26T07:21:04.411Z,13.60
2019-02-26T07:23:35.087Z,13.47
2019-02-26T07:26:05.144Z,13.07
2019-02-26T07:28:34.604Z,14.10
2019-02-26T07:31:05.514Z,13.60
2019-02-26T07:33:36.973Z,13.50
2019-02-26T07:36:06.638Z,13.33
2019-02-26T07:38:41.156Z,12.10
2019-02-26T07:41:07.435Z,14.27
2019-02-26T07:43:41.057Z,13.13
2019-02-26T07:46:10.429Z,11.70
2019-02-26T07:48:39.367Z,11.47
2019-02-26T07:51:08.929Z,12.07
2019-02-26T07:53:42.001Z,12.70
2019-02-26T07:56:09.762Z,12.00
2019-02-26T07:58:41.212Z,10.67
2019-02-26T08:01:10.539Z,11.37
2019-02-26T08:03:42.048Z,10.83
2019-02-26T08:06:12.267Z,9.27
2019-02-26T08:08:44.205Z,10.47
2019-02-26T08:11:14.921Z,8.40
2019-02-26T08:13:44.410Z,9.40
2019-02-26T08:16:13.970Z,8.80
2019-02-26T08:18:43.437Z,8.47
2019-02-26T08:21:13.019Z,7.53
2019-02-26T08:23:43.659Z,8.37
2019-02-26T08:26:15.532Z,7.93
2019-02-26T08:28:45.817Z,8.13
2019-02-26T08:31:18.545Z,7.77
2019-02-26T08:33:50.937Z,7.67
2019-02-26T08:36:18.886Z,8.70
2019-02-26T08:38:48.412Z,7.83
2019-02-26T08:41:17.887Z,8.90
2019-02-26T08:43:49.649Z,7.93
2019-02-26T08:46:18.970Z,8.80
2019-02-26T08:48:50.651Z,7.93
2019-02-26T08:51:21.526Z,7.73
2019-02-26T08:53:51.838Z,8.13
2019-02-26T08:56:23.833Z,8.47
2019-02-26T08:58:58.558Z,7.70
2019-02-26T09:01:28.405Z,7.40
2019-02-26T09:03:58.935Z,7.80
2019-02-26T09:06:29.050Z,7.60
2019-02-26T09:09:00.151Z,7.30
2019-02-26T09:11:31.880Z,7.33
2019-02-26T09:14:03.878Z,7.00
2019-02-26T09:16:32.781Z,7.60
2019-02-26T09:19:02.491Z,7.60
2019-02-26T09:21:31.944Z,6.87
2019-02-26T09:24:04.245Z,6.47
2019-02-26T09:26:32.845Z,7.77
2019-02-26T09:29:02.322Z,7.70
2019-02-26T09:31:31.795Z,7.63
2019-02-26T09:34:01.383Z,7.57
2019-02-26T09:36:31.053Z,7.57
2019-02-26T09:39:00.656Z,7.23
2019-02-26T09:41:30.142Z,7.33
2019-02-26T09:44:01.906Z,7.60
2019-02-26T09:46:31.809Z,6.43
2019-02-26T09:49:03.125Z,7.03
2019-02-26T09:51:35.170Z,7.47
2019-02-26T09:54:05.099Z,7.17
2019-02-26T09:56:34.674Z,6.40
2019-02-26T09:59:06.897Z,7.40
2019-02-26T10:01:37.720Z,7.20
2019-02-26T10:04:07.201Z,6.70
2019-02-26T10:06:37.938Z,6.83
2019-02-26T10:09:10.726Z,6.70
2019-02-26T10:11:41.920Z,6.67
2019-02-26T10:14:12.613Z,6.93
2019-02-26T10:16:41.974Z,6.87
2019-02-26T10:19:12.635Z,5.60
2019-02-26T10:21:44.844Z,5.93
2019-02-26T10:24:14.191Z,6.47
2019-02-26T10:26:43.693Z,5.70
2019-02-26T10:29:13.156Z,6.30
2019-02-26T10:31:42.677Z,6.10
2019-02-26T10:34:15.105Z,5.63
2019-02-26T10:36:46.464Z,6.10
2019-02-26T10:39:15.682Z,6.90
2019-02-26T10:41:47.611Z,7.17
2019-02-26T10:44:17.069Z,6.87
2019-02-26T10:46:46.575Z,6.37
2019-02-26T10:49:16.135Z,6.87
2019-02-26T10:51:45.739Z,7.23
2019-02-26T10:54:17.935Z,6.70
2019-02-26T10:56:46.543Z,6.30
2019-02-26T10:59:19.510Z,6.00
2019-02-26T11:01:51.618Z,6.07
2019-02-26T11:04:18.862Z,6.77
2019-02-26T11:06:48.339Z,6.53
2019-02-26T11:09:21.829Z,6.80
2019-02-26T11:11:49.122Z,5.40
2019-02-26T11:14:19.475Z,5.97
2019-02-26T11:16:49.231Z,5.70
2019-02-26T11:19:18.718Z,5.77
2019-02-26T11:21:50.794Z,5.90
2019-02-26T11:24:19.414Z,5.90
2019-02-26T11:26:48.898Z,5.53
2019-02-26T11:29:18.332Z,5.60
2019-02-26T11:31:49.734Z,6.00
2019-02-26T11:34:19.050Z,6.20
2019-02-26T11:36:48.575Z,5.67
2019-02-26T11:39:18.053Z,5.90
2019-02-26T11:41:48.271Z,5.70
2019-02-26T11:44:20.574Z,5.60
2019-02-26T11:46:51.462Z,5.53
2019-02-26T11:49:21.830Z,5.93
2019-02-26T11:51:51.675Z,6.17
2019-02-26T11:54:21.168Z,5.33
2019-02-26T11:56:52.535Z,5.47
2019-02-26T11:59:22.109Z,5.90
2019-02-26T12:01:51.630Z,5.57
2019-02-26T12:04:21.074Z,5.83
2019-02-26T12:06:50.603Z,5.57
2019-02-26T12:09:20.065Z,5.70
2019-02-26T12:11:49.524Z,5.67
2019-02-26T12:14:21.563Z,5.57
2019-02-26T12:16:50.262Z,6.50
2019-02-26T12:19:19.693Z,5.63
2019-02-26T12:21:49.608Z,5.13
2019-02-26T12:24:20.434Z,6.10
2019-02-26T12:26:52.187Z,5.60
2019-02-26T12:29:23.542Z,5.50
2019-02-26T12:31:55.540Z,5.27
2019-02-26T12:34:24.245Z,4.73
2019-02-26T12:36:57.243Z,5.20
2019-02-26T12:39:27.949Z,4.60
2019-02-26T12:41:56.606Z,4.20
2019-02-26T12:44:28.828Z,4.80
2019-02-26T12:47:00.416Z,4.60
2019-02-26T12:49:29.494Z,3.97
2019-02-26T12:52:03.319Z,4.40
2019-02-26T12:54:33.564Z,4.40
2019-02-26T12:57:04.185Z,4.20
2019-02-26T12:59:34.066Z,4.10
2019-02-26T13:02:05.552Z,3.10
2019-02-26T13:04:37.723Z,3.73
2019-02-26T13:07:08.686Z,3.47
2019-02-26T13:09:41.353Z,3.10
2019-02-26T13:12:11.421Z,3.10
2019-02-26T13:14:40.743Z,3.20
2019-02-26T13:17:13.679Z,3.20
2019-02-26T13:19:41.875Z,3.10
2019-02-26T13:22:13.737Z,3.10
2019-02-26T13:24:42.854Z,2.93
2019-02-26T13:27:12.421Z,2.30
2019-02-26T13:29:47.574Z,2.70
2019-02-26T13:32:17.250Z,3.30
2019-02-26T13:34:44.359Z,3.13
2019-02-26T13:37:13.896Z,3.33
2019-02-26T13:39:45.551Z,3.17
2019-02-26T13:42:19.273Z,3.40
2019-02-26T13:44:46.140Z,3.10
2019-02-26T13:47:15.583Z,3.37
2019-02-26T13:49:45.073Z,3.00
2019-02-26T13:52:14.544Z,3.60
2019-02-26T13:54:44.018Z,3.70
2019-02-26T13:57:13.507Z,3.83
2019-02-26T13:59:42.980Z,4.50
2019-02-26T14:02:12.534Z,3.93
2019-02-26T14:04:42.508Z,4.40
2019-02-26T14:07:12.363Z,4.70
2019-02-26T14:09:41.963Z,5.20
2019-02-26T14:12:11.710Z,3.73
2019-02-26T14:14:41.610Z,5.30
2019-02-26T14:17:11.270Z,5.57
2019-02-26T14:19:40.874Z,5.57
2019-02-26T14:22:10.431Z,4.80
2019-02-26T14:24:39.977Z,4.70
2019-02-26T14:27:09.501Z,6.30
2019-02-26T14:29:38.985Z,5.40
2019-02-26T14:32:08.556Z,5.80
2019-02-26T14:34:37.917Z,7.43
2019-02-26T14:37:07.375Z,7.50
2019-02-26T14:39:36.852Z,7.53
2019-02-26T14:42:06.487Z,6.33
2019-02-26T14:44:36.013Z,4.90
2019-02-26T14:47:05.815Z,6.97
2019-02-26T14:49:35.363Z,7.47
2019-02-26T14:52:04.936Z,7.73
2019-02-26T14:54:34.413Z,7.60
2019-02-26T14:57:04.993Z,6.90
2019-02-26T14:59:34.444Z,7.93
2019-02-26T15:02:03.971Z,8.83
2019-02-26T15:04:33.537Z,8.53
2019-02-26T15:07:03.017Z,7.97
2019-02-26T15:09:32.681Z,8.00
2019-02-26T15:12:02.239Z,7.70
2019-02-26T15:14:31.784Z,7.87
2019-02-26T15:17:01.400Z,8.97
2019-02-26T15:19:30.880Z,9.17
2019-02-26T15:22:00.363Z,9.13
2019-02-26T15:24:30.213Z,9.33
2019-02-26T15:26:59.921Z,8.53
2019-02-26T15:29:29.405Z,8.23
2019-02-26T15:31:58.951Z,8.07
2019-02-26T15:34:28.517Z,8.87
2019-02-26T15:36:58.089Z,8.70
2019-02-26T15:39:27.555Z,9.00
2019-02-26T15:41:57.141Z,8.40
2019-02-26T15:44:28.830Z,8.50
2019-02-26T15:47:01.981Z,8.83
2019-02-26T15:49:29.972Z,8.27
2019-02-26T15:51:59.739Z,7.80
2019-02-26T15:54:29.313Z,8.30
2019-02-26T15:57:00.509Z,8.53
2019-02-26T15:59:30.275Z,8.00
2019-02-26T16:01:59.982Z,8.97
2019-02-26T16:04:29.818Z,8.80
2019-02-26T16:06:59.643Z,8.60
2019-02-26T16:09:29.257Z,9.23
2019-02-26T16:11:58.925Z,9.27
2019-02-26T16:14:28.753Z,9.60
2019-02-26T16:16:58.463Z,9.60
2019-02-26T16:19:27.984Z,10.43
2019-02-26T16:21:57.513Z,10.33
2019-02-26T16:24:26.990Z,10.50
2019-02-26T16:26:56.432Z,10.80
2019-02-26T16:29:25.922Z,9.80
2019-02-26T16:31:57.261Z,11.60
2019-02-26T16:34:26.810Z,11.10
2019-02-26T16:36:56.336Z,9.70
2019-02-26T16:39:25.902Z,10.87
2019-02-26T16:41:55.821Z,11.50
2019-02-26T16:44:25.430Z,11.10
2019-02-26T16:46:54.993Z,12.20
2019-02-26T16:49:25.839Z,11.80
2019-02-26T16:51:56.023Z,11.03
2019-02-26T16:54:25.714Z,11.57
2019-02-26T16:56:55.295Z,12.77
2019-02-26T16:59:24.813Z,12.73
2019-02-26T17:01:54.941Z,11.20
2019-02-26T17:04:25.259Z,12.50
2019-02-26T17:06:59.709Z,11.17
2019-02-26T17:09:43.114Z,11.03
2019-02-26T17:12:29.201Z,12.37
2019-02-26T17:15:24.013Z,12.90
2019-02-26T17:45:54.674Z,14.40
2019-02-26T17:48:24.297Z,14.03
2019-02-26T17:50:54.054Z,13.20
2019-02-26T17:53:27.681Z,13.83
2019-02-26T17:55:54.871Z,13.70
2019-02-26T17:58:24.530Z,14.33
2019-02-26T18:00:55.725Z,12.83
2019-02-26T18:03:25.791Z,13.00
2019-02-26T18:05:55.523Z,11.93
2019-02-26T18:08:25.071Z,11.57
2019-02-26T18:10:54.644Z,11.60
2019-02-26T18:13:24.177Z,12.40
2019-02-26T18:15:56.076Z,13.27
2019-02-26T18:18:24.841Z,12.80
2019-02-26T18:20:54.481Z,14.90
2019-02-26T18:23:23.941Z,13.37
2019-02-26T18:25:53.567Z,11.50
2019-02-26T18:28:23.060Z,13.53
2019-02-26T18:30:52.527Z,13.57
2019-02-26T18:33:22.065Z,13.60
2019-02-26T18:35:51.778Z,11.60
2019-02-26T18:38:21.324Z,14.97
2019-02-26T18:40:50.873Z,13.60
2019-02-26T18:43:20.488Z,12.67
2019-02-26T18:45:49.964Z,13.37
2019-02-26T18:48:19.424Z,12.70
2019-02-26T18:50:49.070Z,12.97
2019-02-26T18:53:18.525Z,13.93
2019-02-26T18:55:48.009Z,11.70
2019-02-26T18:58:17.568Z,12.30
2019-02-26T19:00:47.039Z,12.93
2019-02-26T19:03:17.126Z,12.97
2019-02-26T19:05:46.623Z,15.57
2019-02-26T19:08:16.095Z,13.47
2019-02-26T19:10:45.578Z,12.80
2019-02-26T19:13:15.090Z,11.57
2019-02-26T19:15:47.637Z,13.57
2019-02-26T19:18:15.881Z,13.97
2019-02-26T19:20:48.861Z,13.23
2019-02-26T19:23:16.594Z,14.67
2019-02-26T19:25:46.280Z,15.10
2019-02-26T19:28:15.791Z,14.53
2019-02-26T19:30:45.539Z,12.60
2019-02-26T19:33:15.076Z,15.17
2019-02-26T19:35:44.676Z,16.70
2019-02-26T19:38:14.258Z,12.40
2019-02-26T19:41:15.580Z,13.03
2019-02-26T19:43:45.359Z,13.73
2019-02-26T19:46:17.744Z,16.10
2019-02-26T19:48:47.515Z,16.67
2019-02-26T19:51:16.990Z,15.27
2019-02-26T19:53:46.451Z,14.07
2019-02-26T19:56:15.952Z,15.50
2019-02-26T19:58:45.448Z,15.67
2019-02-26T20:01:15.017Z,15.07
2019-02-26T20:03:44.532Z,15.97
2019-02-26T20:06:14.104Z,12.67
2019-02-26T20:08:43.584Z,14.60
2019-02-26T20:11:13.125Z,13.77
2019-02-26T20:13:42.582Z,16.07
2019-02-26T20:16:12.159Z,15.90
2019-02-26T20:18:41.621Z,14.13
2019-02-26T20:21:11.096Z,15.93
2019-02-26T20:23:42.076Z,14.03
2019-02-26T20:26:15.991Z,14.67
2019-02-26T20:28:43.188Z,13.30
2019-02-26T20:31:12.799Z,12.77
2019-02-26T20:33:42.316Z,14.80
2019-02-26T20:36:11.843Z,16.70
2019-02-26T20:38:41.342Z,16.20
2019-02-26T20:41:10.792Z,16.40
2019-02-26T20:43:40.275Z,17.17
2019-02-26T20:46:09.805Z,20.10
2019-02-26T20:48:39.373Z,17.83
2019-02-26T20:51:08.816Z,18.30
2019-02-26T20:53:38.880Z,17.67
2019-02-26T20:56:09.226Z,16.90
2019-02-26T20:58:38.832Z,15.80
2019-02-26T21:01:08.346Z,15.27
2019-02-26T21:03:37.838Z,17.33
2019-02-26T21:06:07.391Z,18.27
2019-02-26T21:08:36.868Z,17.20
2019-02-26T21:11:06.610Z,19.30
2019-02-26T21:13:36.174Z,17.83
2019-02-26T21:16:05.867Z,14.53
2019-02-26T21:18:35.355Z,15.23
2019-02-26T21:21:05.175Z,18.07
2019-02-26T21:23:34.789Z,17.67
2019-02-26T21:26:04.473Z,17.50
2019-02-26T21:28:34.282Z,17.97
2019-02-26T21:31:04.016Z,16.70
2019-02-26T21:33:33.630Z,18.67
2019-02-26T21:36:03.237Z,18.23
2019-02-26T21:38:32.725Z,16.50
2019-02-26T21:41:02.481Z,17.90
2019-02-26T21:43:34.720Z,15.03
2019-02-26T21:46:03.335Z,15.53
2019-02-26T21:48:36.545Z,16.27
2019-02-26T21:51:04.339Z,16.53
2019-02-26T21:53:33.816Z,17.70
2019-02-26T21:56:03.361Z,15.33
2019-02-26T21:58:32.881Z,15.63
2019-02-26T22:01:02.379Z,14.17
2019-02-26T22:03:31.856Z,16.43
2019-02-26T22:06:05.366Z,18.20
2019-02-26T22:08:32.707Z,17.17
2019-02-26T22:11:02.290Z,16.87
2019-02-26T22:13:31.777Z,16.00
2019-02-26T22:16:01.303Z,22.77
2019-02-26T22:18:33.981Z,18.63
2019-02-26T22:21:01.935Z,17.13
2019-02-26T22:23:33.987Z,15.73
2019-02-26T22:26:02.654Z,14.83
2019-02-26T22:28:32.297Z,14.67
2019-02-26T22:31:01.846Z,15.93
2019-02-26T22:33:31.455Z,17.23
2019-02-26T22:36:00.939Z,17.40
2019-02-26T22:38:30.459Z,17.10
2019-02-26T22:41:02.311Z,16.77
2019-02-26T22:43:31.144Z,18.43
2019-02-26T22:46:01.696Z,15.93
2019-02-26T22:48:31.246Z,14.93
2019-02-26T22:51:00.856Z,18.33
2019-02-26T22:53:30.436Z,15.87
2019-02-26T22:55:59.977Z,16.43
2019-02-26T22:58:29.520Z,15.70
2019-02-26T23:01:11.048Z,17.07
2019-02-26T23:03:40.768Z,17.37
2019-02-26T23:06:10.846Z,15.73
2019-02-26T23:08:44.356Z,14.40
2019-02-26T23:11:13.666Z,16.27
2019-02-26T23:13:43.311Z,14.37
2019-02-26T23:16:17.997Z,14.63
2019-02-26T23:18:44.753Z,15.77
2019-02-26T23:21:15.663Z,15.77
2019-02-26T23:23:46.096Z,11.73
2019-02-26T23:26:15.442Z,14.30
2019-02-26T23:28:45.136Z,15.87
2019-02-26T23:31:16.808Z,16.00
2019-02-26T23:33:48.437Z,14.50
2019-02-26T23:36:17.840Z,14.30
2019-02-26T23:38:47.821Z,14.60
2019-02-26T23:41:17.331Z,15.40
2019-02-26T23:43:46.838Z,16.07
2019-02-26T23:46:16.409Z,15.63
2019-02-26T23:48:45.956Z,13.30
2019-02-26T23:51:20.246Z,14.07
2019-02-26T23:53:46.580Z,12.60
2019-02-26T23:56:16.775Z,14.73
2019-02-26T23:58:47.185Z,13.90
